Time;durP1;ratioP1;P1;durP2;ratioP2;P2;SDS_P1;SDS_P2;PMS_P1;PMS_P2;Temp;Humidity;BMP_temperature;BMP_pressure;BME280_temperature;BME280_humidity;BME280_pressure;Samples;Min_cycle;Max_cycle;Signal;HPM_P1;HPM_P2
2022/12/25 00:00:33;;;;;;;7.28;6.55;;;;;;;26.81;42.99;101234.72;5047834;28;66486;-32
2022/12/25 00:03:04;;;;;;;7.55;6.38;;;;;;;26.83;43.11;101238.91;5050098;28;69397;-31
2022/12/25 00:05:38;;;;;;;7.63;6.53;;;;;;;26.85;43.26;101241.38;5055542;28;65901;-32
2022/12/25 00:08:10;;;;;;;10.98;6.88;;;;;;;26.89;43.56;101243.53;5058804;28;70222;-33
2022/12/25 00:10:41;;;;;;;7.60;6.90;;;;;;;26.91;43.51;101256.78;5058068;28;66072;-32
2022/12/25 00:13:14;;;;;;;10.82;7.55;;;;;;;26.95;43.66;101252.72;5053322;28;70608;-32
2022/12/25 00:15:45;;;;;;;19.37;9.27;;;;;;;26.96;45.13;101270.53;5056978;28;66173;-33
2022/12/25 00:18:17;;;;;;;13.32;9.85;;;;;;;26.96;46.04;101271.38;5052131;28;69226;-32
2022/12/25 00:20:59;;;;;;;15.25;9.75;;;;;;;26.99;47.23;101253.19;5057896;28;66360;-33
2022/12/25 00:23:31;;;;;;;21.57;10.83;;;;;;;27.04;46.99;101262.38;5055443;28;69922;-33
2022/12/25 00:26:10;;;;;;;;;;;;;;;26.83;48.39;101264.94;5053470;28;66168;-33
2022/12/25 00:28:41;;;;;;;21.23;11.63;;;;;;;27.04;47.82;101262.38;5053816;28;70943;-32
2022/12/25 00:31:14;;;;;;;;;;;;;;;26.85;48.84;101273.69;5055070;28;66421;-34
2022/12/25 00:33:46;;;;;;;21.53;12.63;;;;;;;27.09;48.51;101275.28;5060464;28;69157;-32
2022/12/25 00:36:21;;;;;;;24.10;13.07;;;;;;;27.16;49.05;101273.53;5056119;28;65712;-32
2022/12/25 00:38:52;;;;;;;27.50;14.07;;;;;;;27.17;49.33;101267.97;5046797;28;70215;-33
2022/12/25 00:44:13;;;;;;;34.28;13.43;;;;;;;27.22;49.70;101288.13;5057051;28;70201;-34
2022/12/25 00:46:45;;;;;;;25.30;13.50;;;;;;;27.21;49.37;101283.78;5058410;28;66820;-32
2022/12/25 00:49:16;;;;;;;30.95;12.73;;;;;;;27.23;50.16;101289.81;5054327;28;70214;-33
2022/12/25 00:51:51;;;;;;;24.38;13.20;;;;;;;27.27;50.07;101300.00;5055844;28;65312;-32
2022/12/25 00:54:22;;;;;;;24.83;12.68;;;;;;;27.29;50.22;101299.84;5060045;28;70255;-33
2022/12/25 00:56:54;;;;;;;25.43;12.83;;;;;;;27.22;48.81;101285.44;5052938;28;66448;-34
2022/12/25 00:59:25;;;;;;;22.87;11.77;;;;;;;27.21;48.65;101305.31;5057532;28;69986;-32
2022/12/25 01:02:22;;;;;;;23.88;11.57;;;;;;;27.23;48.49;101314.06;5057436;28;65468;-33
2022/12/25 01:04:58;;;;;;;40.05;13.10;;;;;;;27.18;48.76;101307.34;5053958;28;71133;-34
2022/12/25 01:07:29;;;;;;;40.80;13.27;;;;;;;27.25;48.72;101317.41;5051429;28;65697;-35
2022/12/25 01:12:51;;;;;;;35.97;15.32;;;;;;;27.28;48.98;101327.81;5051342;28;66167;-34
2022/12/25 01:15:23;;;;;;;33.72;15.35;;;;;;;27.26;48.56;101316.38;5055714;28;70129;-34
2022/12/25 01:17:54;;;;;;;39.05;16.25;;;;;;;27.28;48.65;101333.19;5052236;28;65230;-33
2022/12/25 01:20:26;;;;;;;38.97;16.73;;;;;;;27.28;48.57;101338.59;5045568;28;70359;-33
2022/12/25 01:22:58;;;;;;;43.53;17.35;;;;;;;27.30;48.84;101341.91;5057736;28;66265;-33
2022/12/25 01:25:29;;;;;;;41.08;17.15;;;;;;;27.31;48.40;101346.28;5056805;28;69943;-33
2022/12/25 01:28:00;;;;;;;35.97;17.80;;;;;;;27.26;48.87;101340.63;5054768;28;66129;-34
2022/12/25 01:30:32;;;;;;;31.63;17.40;;;;;;;27.33;49.02;101349.63;5053163;28;70034;-33
2022/12/25 01:33:04;;;;;;;30.67;17.10;;;;;;;27.33;48.86;101355.00;5054901;28;65626;-35
2022/12/25 01:35:39;;;;;;;34.17;16.15;;;;;;;26.65;48.48;101236.53;5050646;28;70522;-34
2022/12/25 01:38:11;;;;;;;25.63;15.65;;;;;;;27.33;48.66;101349.63;5042736;28;66572;-34
2022/12/25 01:40:42;;;;;;;29.23;16.13;;;;;;;27.36;48.78;101357.34;5049511;28;70150;-34
2022/12/25 01:43:24;;;;;;;26.77;14.98;;;;;;;27.30;48.26;101353.53;5051589;28;65372;-33
2022/12/25 01:45:56;;;;;;;24.55;15.10;;;;;;;27.35;48.31;101363.75;5053195;28;69321;-33
2022/12/25 01:48:35;;;;;;;26.45;15.63;;;;;;;26.65;48.01;101241.91;5055089;28;66395;-32
2022/12/25 01:51:23;;;;;;;35.00;17.70;;;;;;;27.35;48.55;101363.75;5055498;28;68785;-34
2022/12/25 01:53:59;;;;;;;35.13;17.70;;;;;;;27.07;48.25;101310.47;5050495;28;66522;-34
2022/12/25 01:56:33;;;;;;;36.63;18.33;;;;;;;27.38;48.68;101357.97;5053695;28;69115;-34
2022/12/25 01:59:07;;;;;;;33.92;16.45;;;;;;;27.03;48.24;101298.41;5071715;27;65698;-33
2022/12/25 02:01:39;;;;;;;36.80;18.33;;;;;;;27.44;48.64;101365.31;5044564;28;69947;-33
2022/12/25 02:04:17;;;;;;;36.70;17.42;;;;;;;27.46;48.60;101357.88;5057720;28;66834;-34
2022/12/25 02:06:50;;;;;;;33.35;16.30;;;;;;;27.48;48.27;101358.56;5056787;28;69513;-33
2022/12/25 02:09:22;;;;;;;39.72;17.55;;;;;;;27.48;48.68;101355.03;5057346;28;65833;-33
2022/12/25 02:11:57;;;;;;;30.48;16.02;;;;;;;27.48;48.74;101353.16;5052761;28;70225;-35
2022/12/25 02:14:32;;;;;;;33.72;16.42;;;;;;;27.52;48.72;101367.09;5054423;28;66694;-34
2022/12/25 02:17:13;;;;;;;32.35;16.40;;;;;;;27.44;49.10;101343.75;5065920;27;70435;-34
2022/12/25 02:19:53;;;;;;;27.00;16.83;;;;;;;27.49;49.17;101352.13;5056536;28;66019;-34
2022/12/25 02:23:05;;;;;;;41.13;17.13;;;;;;;27.43;49.50;101352.88;5049595;28;70038;-32
2022/12/25 02:26:04;;;;;;;35.20;16.70;;;;;;;27.43;49.62;101352.03;5050114;28;67363;-33
2022/12/25 02:28:44;;;;;;;30.27;16.33;;;;;;;27.48;49.11;101334.31;5054230;28;70396;-34
2022/12/25 02:31:25;;;;;;;35.50;17.00;;;;;;;27.16;49.17;101287.88;5054769;28;65890;-34
2022/12/25 02:34:16;;;;;;;34.78;16.67;;;;;;;27.42;49.56;101345.00;5070549;27;69410;-33
2022/12/25 02:36:56;;;;;;;33.08;17.42;;;;;;;27.60;48.99;101353.53;5057631;28;66376;-33
2022/12/25 02:39:59;;;;;;;31.17;17.63;;;;;;;27.66;48.68;101350.06;5055084;28;69648;-33
2022/12/25 03:07:08;;;;;;;32.72;15.93;;;;;;;27.79;49.21;101335.94;5040579;28;66243;-34
2022/12/25 03:12:50;;;;;;;24.25;14.98;;;;;;;27.78;49.32;101335.09;5047833;28;65732;-35
2022/12/25 03:18:21;;;;;;;22.50;14.32;;;;;;;27.73;49.32;101309.75;5050267;28;66488;-32
2022/12/25 03:26:55;;;;;;;125.93;29.85;;;;;;;27.95;50.00;101334.94;5003852;28;69413;-35
2022/12/25 03:32:26;;;;;;;78.43;21.77;;;;;;;28.02;50.16;101330.44;5046222;28;69217;-33
2022/12/25 03:35:25;;;;;;;53.15;20.42;;;;;;;27.97;51.18;101328.31;5053313;28;65056;-34
2022/12/25 04:36:10;;;;;;;31.52;14.70;;;;;;;28.57;50.83;101225.56;5049738;28;70244;-39
2022/12/25 04:38:41;;;;;;;22.77;14.50;;;;;;;28.67;51.83;101228.75;5051054;28;66282;-36
2022/12/25 04:41:13;;;;;;;17.95;13.32;;;;;;;28.70;50.86;101231.06;5061390;28;69784;-37
2022/12/25 04:43:45;;;;;;;25.00;14.85;;;;;;;28.54;50.78;101193.56;5054514;28;66321;-36
2022/12/25 04:46:16;;;;;;;20.38;14.32;;;;;;;28.63;51.02;101200.47;5057179;28;70171;-35
2022/12/25 04:48:47;;;;;;;19.77;13.02;;;;;;;28.73;51.14;101215.28;5056263;28;66085;-38
2022/12/25 04:51:24;;;;;;;16.10;12.82;;;;;;;28.76;50.85;101200.56;5058102;27;70634;-33
2022/12/25 04:53:56;;;;;;;25.45;13.13;;;;;;;28.84;50.67;101211.22;5058649;28;67048;-37
2022/12/25 04:56:27;;;;;;;24.27;15.35;;;;;;;28.87;50.55;101205.41;5054580;28;70299;-37
2022/12/25 04:58:59;;;;;;;15.30;13.07;;;;;;;28.79;50.66;101181.25;5060561;28;66456;-36
2022/12/25 05:01:31;;;;;;;17.58;13.23;;;;;;;28.89;50.83;101197.94;5059024;28;70019;-36
2022/12/25 05:04:03;;;;;;;17.45;13.15;;;;;;;28.91;50.61;101190.47;5049073;28;65285;-36
2022/12/25 05:06:34;;;;;;;19.50;13.30;;;;;;;28.91;50.21;101187.75;5055365;28;69214;-33
2022/12/25 05:09:06;;;;;;;22.43;14.07;;;;;;;28.84;51.21;101161.78;5052145;28;66130;-35
2022/12/25 05:11:38;;;;;;;27.13;15.18;;;;;;;28.89;52.73;101170.94;5050720;28;69995;-35
2022/12/25 05:14:09;;;;;;;16.00;12.85;;;;;;;28.92;52.48;101165.13;5056095;28;66773;-37
2022/12/25 05:16:40;;;;;;;22.00;12.77;;;;;;;28.91;52.36;101168.84;5052213;28;69281;-32
2022/12/25 05:19:12;;;;;;;18.55;12.55;;;;;;;28.96;52.21;101155.59;5058264;28;65121;-36
2022/12/25 05:21:43;;;;;;;13.48;11.50;;;;;;;28.93;51.82;101145.19;5051292;28;70158;-34
2022/12/25 05:24:15;;;;;;;13.50;12.15;;;;;;;28.96;52.19;101147.50;5052889;28;66399;-37
2022/12/25 05:26:46;;;;;;;28.83;13.07;;;;;;;28.99;52.98;101142.72;5054821;28;70277;-34
2022/12/25 05:29:18;;;;;;;25.10;12.97;;;;;;;29.09;50.96;101145.94;5057429;28;65187;-35
2022/12/25 05:31:49;;;;;;;19.77;13.90;;;;;;;29.02;51.14;101115.31;5055199;28;70854;-36
2022/12/25 05:34:21;;;;;;;22.98;12.68;;;;;;;29.02;50.22;101126.13;5056255;28;66351;-37
2022/12/25 05:36:53;;;;;;;55.77;16.60;;;;;;;28.98;49.88;101122.16;5057512;28;68923;-36
2022/12/25 05:39:24;;;;;;;45.55;15.50;;;;;;;28.82;48.95;101104.44;5054029;28;65179;-35
2022/12/25 05:41:55;;;;;;;63.93;17.20;;;;;;;28.85;48.54;101112.97;5055848;28;70050;-37
2022/12/25 05:44:27;;;;;;;48.10;16.33;;;;;;;28.76;48.64;101095.28;5052561;28;66616;-38
2022/12/25 05:46:59;;;;;;;53.78;16.38;;;;;;;28.64;48.25;101077.97;5058029;28;70129;-33
2022/12/25 05:49:30;;;;;;;64.70;15.82;;;;;;;28.71;48.83;101093.16;5052689;28;65048;-35
2022/12/25 05:52:02;;;;;;;37.53;14.30;;;;;;;28.67;48.18;101086.50;5053358;28;69345;-35
2022/12/25 05:54:34;;;;;;;52.97;14.13;;;;;;;28.60;48.47;101085.63;5058014;28;65085;-34
2022/12/25 05:57:05;;;;;;;;;;;;;;;28.32;48.75;101082.13;5056516;28;69616;-37
2022/12/25 05:59:37;;;;;;;60.88;15.07;;;;;;;28.54;48.27;101080.22;5054243;28;65369;-37
2022/12/25 06:02:08;;;;;;;31.98;13.40;;;;;;;28.51;47.23;101076.06;5054877;28;69262;-35
2022/12/25 06:04:41;;;;;;;35.25;11.43;;;;;;;28.49;47.04;101076.22;5057602;28;66053;-33
2022/12/25 06:07:12;;;;;;;37.58;12.90;;;;;;;28.44;46.65;101076.00;5059304;28;70401;-35
2022/12/25 06:09:43;;;;;;;18.13;12.27;;;;;;;28.32;46.09;101055.97;5043310;28;66041;-35
2022/12/25 06:12:15;;;;;;;22.83;12.50;;;;;;;28.37;45.75;101058.91;5051951;28;69724;-32
2022/12/25 06:14:46;;;;;;;22.13;12.65;;;;;;;28.34;44.87;101056.63;5045543;28;64493;-36
2022/12/25 06:17:17;;;;;;;19.85;12.32;;;;;;;28.32;44.52;101045.19;5056198;28;70549;-33
2022/12/25 06:19:49;;;;;;;19.58;14.60;;;;;;;28.31;44.56;101038.16;5056693;28;66672;-34
2022/12/25 06:22:22;;;;;;;27.67;16.45;;;;;;;28.26;43.81;101038.72;5059209;28;69868;-36
2022/12/25 06:24:53;;;;;;;21.50;15.00;;;;;;;28.25;43.77;101030.81;5058282;28;66350;-36
2022/12/25 06:27:27;;;;;;;19.10;14.82;;;;;;;28.23;43.13;101035.59;5047278;28;69302;-34
2022/12/25 06:29:58;;;;;;;23.38;15.02;;;;;;;28.22;42.90;101023.13;5055500;28;65575;-36
2022/12/25 06:32:30;;;;;;;16.73;13.20;;;;;;;28.26;43.07;101016.31;5053357;28;70226;-34
2022/12/25 06:35:01;;;;;;;17.42;14.10;;;;;;;28.23;42.89;101022.13;5053821;28;65466;-36
2022/12/25 06:37:33;;;;;;;14.23;12.63;;;;;;;28.17;42.45;101004.03;5050645;28;69960;-34
2022/12/25 06:40:05;;;;;;;14.45;13.00;;;;;;;28.22;41.91;101013.19;5056351;28;66025;-37
2022/12/25 06:42:36;;;;;;;14.85;12.18;;;;;;;28.13;41.96;101003.59;5057644;28;70563;-37
2022/12/25 06:45:08;;;;;;;15.43;13.03;;;;;;;28.20;41.49;101003.63;5054310;28;66470;-34
2022/12/25 06:47:39;;;;;;;17.42;11.73;;;;;;;28.19;41.96;101007.34;5043509;28;70227;-32
2022/12/25 06:50:11;;;;;;;12.93;11.63;;;;;;;28.18;41.62;100994.91;5041543;28;65434;-33
2022/12/25 06:52:42;;;;;;;12.70;11.27;;;;;;;28.18;41.13;101000.31;5051705;28;70037;-32
2022/12/25 06:55:14;;;;;;;15.43;11.50;;;;;;;28.17;41.87;100999.47;5054875;28;66178;-36
2022/12/25 06:57:45;;;;;;;12.95;11.57;;;;;;;28.23;41.86;100992.44;5054917;28;70088;-37
2022/12/25 07:00:16;;;;;;;13.93;11.80;;;;;;;28.39;42.29;101008.31;5060094;28;65282;-35
2022/12/25 07:02:48;;;;;;;12.00;11.00;;;;;;;28.45;42.29;101002.13;5056567;28;69880;-35
2022/12/25 07:05:20;;;;;;;12.48;10.93;;;;;;;28.51;42.99;100995.91;5054914;28;65912;-37
2022/12/25 07:07:52;;;;;;;11.77;10.60;;;;;;;28.59;43.23;101002.19;5029991;28;70278;-38
2022/12/25 07:10:23;;;;;;;10.75;9.68;;;;;;;28.65;42.92;101001.38;5055170;28;66550;-36
2022/12/25 07:12:55;;;;;;;11.07;9.63;;;;;;;28.69;43.38;100987.25;5051956;28;70012;-37
2022/12/25 07:15:26;;;;;;;11.63;10.07;;;;;;;28.78;43.93;100987.06;5046086;28;65968;-36
2022/12/25 07:17:57;;;;;;;12.50;11.03;;;;;;;28.86;44.66;100982.34;5050191;28;69933;-35
2022/12/25 07:20:29;;;;;;;14.55;10.52;;;;;;;28.83;45.51;100971.91;5053639;28;66441;-37
2022/12/25 07:23:01;;;;;;;14.07;10.43;;;;;;;28.99;45.59;100983.38;5055855;28;69928;-35
2022/12/25 07:25:32;;;;;;;14.15;10.98;;;;;;;29.05;45.67;100979.91;5051630;28;65949;-40
2022/12/25 07:28:07;;;;;;;17.42;11.43;;;;;;;29.09;45.75;100978.47;5047565;28;70097;-37
2022/12/25 07:30:39;;;;;;;12.25;11.05;;;;;;;29.06;46.14;100965.34;5043835;28;66894;-35
2022/12/25 07:33:10;;;;;;;15.00;12.43;;;;;;;29.18;46.56;100979.91;5058100;28;70057;-35
2022/12/25 07:35:41;;;;;;;18.07;11.83;;;;;;;29.20;46.30;100980.56;5053370;28;66151;-35
2022/12/25 07:38:13;;;;;;;18.10;12.33;;;;;;;29.23;46.93;100984.72;5048270;28;70575;-36
2022/12/25 07:40:45;;;;;;;23.58;12.57;;;;;;;29.26;46.61;100982.41;5046937;28;66263;-34
2022/12/25 07:43:16;;;;;;;19.98;13.52;;;;;;;29.30;46.43;100983.66;5053694;28;70243;-34
2022/12/25 07:45:48;;;;;;;32.60;12.38;;;;;;;29.38;45.30;100982.63;5055406;28;67024;-38
2022/12/25 07:48:19;;;;;;;35.30;12.15;;;;;;;29.39;45.01;100971.63;5055903;28;70393;-36
2022/12/25 07:51:02;;;;;;;47.83;16.05;;;;;;;29.59;44.37;100987.81;5047745;28;65645;-33
2022/12/25 07:53:36;;;;;;;46.17;15.13;;;;;;;29.71;44.41;100984.50;5054249;28;69757;-34
2022/12/25 07:56:14;;;;;;;41.80;16.30;;;;;;;29.44;44.78;100927.75;5054740;27;64732;-31
2022/12/25 07:58:47;;;;;;;24.42;11.45;;;;;;;29.79;42.65;100971.59;5054039;28;69196;-36
2022/12/25 08:01:21;;;;;;;23.35;12.13;;;;;;;29.55;43.79;100918.16;5055488;28;66312;-38
2022/12/25 08:04:00;;;;;;;21.90;11.65;;;;;;;29.55;44.64;100918.16;5055465;28;70053;-36
2022/12/25 08:06:34;;;;;;;27.58;13.35;;;;;;;29.54;44.81;100908.41;5057262;28;66442;-36
2022/12/25 08:09:11;;;;;;;28.38;11.57;;;;;;;30.03;44.02;100985.47;5053399;28;69637;-36
2022/12/25 08:11:46;;;;;;;21.52;12.13;;;;;;;30.10;44.14;100978.19;5051427;28;66205;-34
2022/12/25 08:14:17;;;;;;;27.65;12.60;;;;;;;30.10;44.72;100982.78;5053354;28;70315;-37
2022/12/25 08:16:48;;;;;;;32.17;11.93;;;;;;;30.05;44.43;100978.00;5049140;28;66081;-36
2022/12/25 08:19:20;;;;;;;;;;;;;;;29.89;44.22;100976.56;5049636;28;70187;-35
2022/12/25 08:21:51;;;;;;;15.60;10.93;;;;;;;30.07;44.24;100978.63;5055667;28;66759;-36
2022/12/25 08:24:22;;;;;;;20.30;11.10;;;;;;;30.16;42.46;100982.75;5051786;28;70126;-36
2022/12/25 08:26:54;;;;;;;29.47;10.90;;;;;;;30.21;42.32;100987.53;5050069;28;66051;-35
2022/12/25 08:29:27;;;;;;;27.35;11.30;;;;;;;30.24;42.73;100985.25;5050908;28;69925;-34
2022/12/25 08:31:59;;;;;;;23.05;12.55;;;;;;;30.20;43.22;100969.59;5058505;28;66845;-34
2022/12/25 08:34:31;;;;;;;16.35;11.70;;;;;;;30.32;42.78;100975.25;5060227;28;70123;-34
2022/12/25 08:37:02;;;;;;;24.00;11.77;;;;;;;30.34;43.25;100990.22;5056406;28;66629;-32
2022/12/25 08:39:33;;;;;;;20.27;10.90;;;;;;;30.39;43.74;100987.66;5054316;28;70588;-36
2022/12/25 08:42:05;;;;;;;28.67;11.30;;;;;;;30.47;44.14;100994.72;5059436;28;65487;-38
2022/12/25 08:44:39;;;;;;;17.55;11.10;;;;;;;30.46;44.18;100976.84;5060849;28;43091;-34
2022/12/25 08:47:13;;;;;;;17.58;10.52;;;;;;;30.55;44.03;100990.97;5056022;28;66092;-36
2022/12/25 08:49:45;;;;;;;19.48;10.52;;;;;;;30.62;43.87;100998.00;5051866;28;68850;-35
2022/12/25 08:52:16;;;;;;;21.23;10.25;;;;;;;30.65;44.04;100997.56;5058814;28;66055;-34
2022/12/25 08:54:47;;;;;;;15.87;10.17;;;;;;;30.67;44.24;101000.91;5058403;28;70367;-35
2022/12/25 08:57:19;;;;;;;20.67;10.00;;;;;;;30.70;44.17;101005.03;5057268;28;65493;-34
2022/12/25 08:59:50;;;;;;;16.53;9.17;;;;;;;30.73;43.61;101005.44;5059226;28;69233;-35
2022/12/25 09:02:21;;;;;;;15.18;9.32;;;;;;;30.69;44.14;100998.78;5053620;28;65377;-34
2022/12/25 09:04:53;;;;;;;13.38;9.50;;;;;;;30.76;43.67;101014.16;5054384;28;69854;-34
2022/12/25 09:07:24;;;;;;;18.93;10.47;;;;;;;30.79;43.89;101005.63;5059966;28;66589;-34
2022/12/25 09:09:56;;;;;;;18.25;9.73;;;;;;;30.80;43.78;101015.44;5055359;28;69863;-34
2022/12/25 09:12:27;;;;;;;12.13;9.30;;;;;;;30.82;43.79;101016.06;5051965;28;66129;-34
2022/12/25 09:14:58;;;;;;;15.00;10.35;;;;;;;30.83;43.30;101018.53;5058482;28;69182;-35
2022/12/25 09:17:30;;;;;;;13.20;9.38;;;;;;;30.84;43.03;101022.06;5057653;28;65474;-38
2022/12/25 09:20:01;;;;;;;16.58;9.48;;;;;;;30.84;43.46;101016.66;5057414;28;70721;-38
2022/12/25 09:22:33;;;;;;;;;;;;;;;30.62;43.23;101024.22;5058359;28;66652;-36
2022/12/25 09:25:04;;;;;;;17.15;9.30;;;;;;;30.78;43.69;101010.19;5057422;28;70255;-34
2022/12/25 09:27:36;;;;;;;11.90;8.57;;;;;;;30.86;43.47;101020.81;5048235;28;65328;-34
2022/12/25 09:30:09;;;;;;;13.40;9.73;;;;;;;30.91;43.36;101034.53;5054721;28;69749;-34
2022/12/25 09:32:40;;;;;;;14.75;9.23;;;;;;;30.92;43.65;101035.34;5053720;28;65513;-33
2022/12/25 09:35:12;;;;;;;12.40;9.05;;;;;;;30.92;43.74;101035.34;5050811;28;69109;-36
2022/12/25 09:37:45;;;;;;;18.13;9.57;;;;;;;30.92;43.61;101038.91;5052885;28;66421;-33
2022/12/25 09:40:25;;;;;;;9.45;8.30;;;;;;;30.59;43.78;100989.47;5049370;28;70174;-34
2022/12/25 09:42:57;;;;;;;13.30;8.95;;;;;;;30.85;43.48;101034.59;5056582;28;65207;-33
2022/12/25 09:45:31;;;;;;;;;;;;;;;30.65;43.90;101048.19;5055429;28;71539;-34
2022/12/25 09:48:03;;;;;;;14.63;8.77;;;;;;;30.90;43.81;101042.91;5059556;28;65719;-37
2022/12/25 09:50:48;;;;;;;27.70;9.98;;;;;;;30.46;43.53;100987.66;5053877;28;70604;-35
2022/12/25 09:53:33;;;;;;;10.98;8.60;;;;;;;30.90;44.21;101048.31;5056217;28;66499;-33
2022/12/25 09:56:16;;;;;;;17.10;9.45;;;;;;;30.88;44.88;101044.97;5051617;28;69300;-32
2022/12/25 09:58:48;;;;;;;20.10;9.00;;;;;;;30.92;44.52;101054.31;5053878;28;66488;-37
2022/12/25 10:01:57;;;;;;;17.75;9.25;;;;;;;30.44;44.98;101011.41;5061956;28;69254;-33
2022/12/25 10:04:47;;;;;;;18.92;9.15;;;;;;;30.57;46.78;101059.25;5051178;28;66534;-38
2022/12/25 10:07:30;;;;;;;24.65;9.35;;;;;;;30.51;48.11;101055.53;5053430;28;70063;-35
2022/12/25 10:10:33;;;;;;;26.60;9.50;;;;;;;30.10;49.15;101010.66;5074809;27;66410;-35
2022/12/25 10:13:25;;;;;;;19.67;9.95;;;;;;;30.47;48.81;101065.09;5057759;27;69212;-37
2022/12/25 10:16:24;;;;;;;21.38;9.52;;;;;;;30.23;50.27;101055.81;5058590;28;65709;-34
2022/12/25 10:19:16;;;;;;;32.38;10.48;;;;;;;30.37;50.70;101067.41;5055211;28;69274;-35
2022/12/25 10:21:51;;;;;;;31.77;10.85;;;;;;;30.35;49.71;101066.81;5055938;28;66179;-31
2022/12/25 10:24:33;;;;;;;48.53;11.77;;;;;;;30.42;49.49;101068.47;5058283;28;70282;-39
2022/12/25 10:27:33;;;;;;;58.63;13.15;;;;;;;30.46;48.49;101085.94;5047843;28;66528;-33
2022/12/25 10:30:20;;;;;;;56.35;13.18;;;;;;;30.54;48.37;101087.59;5056131;28;69676;-36
2022/12/25 10:32:55;;;;;;;39.92;11.02;;;;;;;30.23;47.90;101015.25;5055480;28;65702;-36
2022/12/25 10:35:30;;;;;;;35.35;13.10;;;;;;;30.50;46.85;101070.91;5049883;28;69286;-36
2022/12/25 10:38:10;;;;;;;42.20;13.30;;;;;;;30.60;47.81;101080.50;5052247;28;66301;-34
2022/12/25 10:41:20;;;;;;;51.75;13.30;;;;;;;30.61;47.33;101099.22;5043702;28;70380;-34
2022/12/25 10:43:57;;;;;;;41.35;13.40;;;;;;;30.63;46.90;101102.53;5056403;28;66711;-36
2022/12/25 10:46:29;;;;;;;30.73;13.35;;;;;;;30.65;46.71;101100.47;5044246;28;70414;-33
2022/12/25 10:49:02;;;;;;;46.25;14.55;;;;;;;30.59;47.12;101098.63;5052209;28;65709;-35
2022/12/25 10:51:38;;;;;;;41.47;15.65;;;;;;;30.26;46.27;101053.50;5046740;28;70235;-39
2022/12/25 10:54:49;;;;;;;40.45;15.15;;;;;;;30.50;46.06;101116.09;5053325;28;66235;-38
2022/12/25 10:57:22;;;;;;;43.40;15.77;;;;;;;30.25;45.91;101065.38;4996119;28;69889;-35
2022/12/25 10:59:55;;;;;;;38.03;15.85;;;;;;;30.55;45.80;101121.72;4995666;28;66680;-34
2022/12/25 11:02:30;;;;;;;32.30;17.15;;;;;;;30.59;45.69;101128.41;5024352;28;70637;-36
2022/12/25 11:05:13;;;;;;;40.40;18.48;;;;;;;30.20;45.53;101070.56;5049212;28;66001;-36
2022/12/25 11:07:53;;;;;;;35.70;17.60;;;;;;;30.21;45.83;101077.63;5047685;28;69585;-38
2022/12/25 11:10:34;;;;;;;48.20;23.23;;;;;;;30.39;45.65;101105.94;5049972;28;65968;-35
2022/12/25 11:13:17;;;;;;;49.75;26.73;;;;;;;30.54;45.80;101147.16;5056598;28;70466;-35
2022/12/25 11:15:48;;;;;;;32.33;19.90;;;;;;;30.53;47.10;101139.22;5055605;28;66541;-35
2022/12/25 11:18:21;;;;;;;34.63;18.70;;;;;;;30.07;48.11;101081.41;5053530;28;69975;-38
2022/12/25 11:20:56;;;;;;;44.83;19.23;;;;;;;30.43;47.78;101140.50;5052167;28;65313;-34
2022/12/25 11:23:49;;;;;;;78.32;35.88;;;;;;;30.47;47.00;101157.13;5047514;28;69212;-33
2022/12/25 11:26:20;;;;;;;99.50;43.03;;;;;;;30.36;46.62;101138.84;5051234;28;67057;-36
2022/12/25 11:28:54;;;;;;;81.93;39.83;;;;;;;30.35;46.30;101153.44;5051464;28;69051;-34
2022/12/25 11:31:40;;;;;;;87.57;36.42;;;;;;;30.05;45.93;101126.78;5052056;28;66721;-37
2022/12/25 11:34:23;;;;;;;51.75;31.60;;;;;;;30.15;45.71;101153.41;5057193;28;70469;-35
2022/12/25 11:36:57;;;;;;;68.00;31.80;;;;;;;30.05;45.59;101148.41;5051000;28;65626;-33
2022/12/25 11:39:40;;;;;;;52.28;28.88;;;;;;;29.98;45.42;101153.84;5050840;28;70176;-35
2022/12/25 11:42:34;;;;;;;54.60;31.08;;;;;;;29.91;45.34;101162.97;5042771;28;65594;-36
2022/12/25 11:45:46;;;;;;;54.85;29.90;;;;;;;29.79;45.49;101163.59;5046783;28;70470;-35
2022/12/25 11:48:54;;;;;;;58.10;28.85;;;;;;;29.79;46.00;101160.88;5022042;28;65388;-34
2022/12/25 11:51:32;;;;;;;53.85;28.40;;;;;;;29.72;46.53;101151.91;5054782;28;69354;-39
2022/12/25 11:54:29;;;;;;;55.08;28.27;;;;;;;29.76;46.98;101166.72;5042257;28;66504;-38
2022/12/25 11:57:05;;;;;;;45.63;26.52;;;;;;;29.80;47.69;101167.13;5021668;28;69335;-35
2022/12/25 12:00:03;;;;;;;55.63;28.67;;;;;;;29.74;47.95;101171.47;5051656;28;66413;-38
2022/12/25 12:02:43;;;;;;;46.10;27.17;;;;;;;29.83;47.54;101181.06;5049961;28;69265;-37
2022/12/25 12:05:25;;;;;;;48.97;26.52;;;;;;;29.84;47.99;101185.44;5051072;28;65337;-35
2022/12/25 12:08:02;;;;;;;48.63;26.13;;;;;;;29.87;48.95;101196.91;5052248;28;70050;-38
2022/12/25 12:11:14;;;;;;;49.58;26.02;;;;;;;29.84;48.28;101190.84;5052425;28;66182;-34
2022/12/25 12:14:05;;;;;;;49.22;25.95;;;;;;;29.81;49.17;101202.09;5058053;28;69947;-38
2022/12/25 12:16:36;;;;;;;39.38;24.65;;;;;;;29.82;49.21;101206.44;5052247;28;65804;-36
2022/12/25 12:19:25;;;;;;;44.00;24.15;;;;;;;29.75;50.03;101207.47;5050400;28;68575;-34
2022/12/25 12:22:03;;;;;;;39.60;24.60;;;;;;;29.45;49.70;101144.75;5061121;28;65386;-37
2022/12/25 12:24:45;;;;;;;45.53;25.98;;;;;;;29.79;50.09;101206.84;5058768;28;69416;-37
2022/12/25 12:27:22;;;;;;;;;;;;;;;29.58;50.74;101202.38;5056969;28;66171;-38
2022/12/25 12:29:57;;;;;;;40.22;23.40;;;;;;;29.47;49.78;101156.22;5068659;27;70014;-38
2022/12/25 12:32:43;;;;;;;40.38;23.58;;;;;;;29.80;50.31;101227.44;5055314;28;66813;-37
2022/12/25 12:35:27;;;;;;;42.42;24.83;;;;;;;29.84;50.29;101227.88;5046954;28;70133;-39
2022/12/25 12:38:24;;;;;;;41.38;24.38;;;;;;;29.83;50.73;101237.00;5056623;28;65333;-39
2022/12/25 12:41:05;;;;;;;39.35;23.83;;;;;;;29.48;51.08;101184.94;5056114;28;70203;-36
2022/12/25 12:43:47;;;;;;;47.90;26.02;;;;;;;29.82;51.59;101241.59;5052295;28;66179;-37
2022/12/25 12:46:39;;;;;;;39.92;25.92;;;;;;;29.66;51.28;101214.94;5037508;28;69228;-35
2022/12/25 12:49:23;;;;;;;46.65;25.77;;;;;;;29.83;51.28;101247.84;5069386;27;64617;-38
2022/12/25 12:52:19;;;;;;;40.40;23.48;;;;;;;29.83;50.92;101264.88;5053536;28;70445;-35
2022/12/25 12:55:00;;;;;;;44.83;26.75;;;;;;;29.86;51.21;101257.41;5051188;28;65404;-38
2022/12/25 12:57:40;;;;;;;45.22;25.02;;;;;;;29.84;51.26;101258.47;5047525;28;70046;-36
2022/12/25 13:00:20;;;;;;;37.15;24.27;;;;;;;29.51;51.40;101206.13;5057296;28;66295;-34
2022/12/25 13:03:05;;;;;;;45.40;27.42;;;;;;;29.83;50.82;101270.28;5055093;28;70286;-37
2022/12/25 13:06:08;;;;;;;48.15;27.92;;;;;;;29.75;50.90;101262.38;5052661;28;65702;-35
2022/12/25 13:08:40;;;;;;;42.17;27.75;;;;;;;29.87;50.56;101272.63;5054485;28;70460;-34
2022/12/25 13:11:25;;;;;;;46.80;28.92;;;;;;;29.57;51.04;101235.06;5053651;28;65482;-34
2022/12/25 13:14:00;;;;;;;48.33;31.30;;;;;;;29.43;51.01;101209.03;5049457;28;69508;-37
2022/12/25 13:16:39;;;;;;;49.30;33.80;;;;;;;29.88;51.66;101279.69;5055508;28;66180;-35
2022/12/25 13:19:24;;;;;;;55.45;34.97;;;;;;;29.78;50.88;101272.81;5053792;28;69530;-40
2022/12/25 13:22:01;;;;;;;59.13;35.65;;;;;;;29.89;52.05;101289.44;5058263;28;65223;-36
2022/12/25 13:24:42;;;;;;;62.75;39.17;;;;;;;29.78;50.87;101272.81;5055005;28;69536;-39
2022/12/25 13:27:33;;;;;;;63.53;36.92;;;;;;;29.66;50.09;101279.81;5037225;28;66444;-37
2022/12/25 13:30:19;;;;;;;69.38;38.03;;;;;;;29.36;49.31;101247.66;5052272;28;69157;-36
2022/12/25 13:32:50;;;;;;;75.38;42.00;;;;;;;29.53;49.25;101277.03;5053929;28;65112;-38
2022/12/25 13:35:23;;;;;;;58.58;40.35;;;;;;;29.53;48.90;101279.72;5073174;27;70441;-34
2022/12/25 13:37:55;;;;;;;57.88;38.22;;;;;;;29.48;48.85;101290.34;5048966;28;65266;-38